Time;durP1;ratioP1;P1;durP2;ratioP2;P2;SDS_P1;SDS_P2;PMS_P1;PMS_P2;Temp;Humidity;BMP_temperature;BMP_pressure;BME280_temperature;BME280_humidity;BME280_pressure;Samples;Min_cycle;Max_cycle;Signal;HPM_P1;HPM_P2
2023/12/04 00:00:00;;;;;;;;;;;20.20;32.10;;;;;;4976228;28;19927;-49
2023/12/04 00:02:26;;;;;;;;;;;20.30;32.10;;;;;;4974869;28;19926;-47
2023/12/04 00:04:54;;;;;;;;;;;20.30;32.00;;;;;;4975701;28;20368;-51
2023/12/04 00:07:21;;;;;;;;;;;20.30;32.00;;;;;;4976104;28;20287;-48
2023/12/04 00:09:48;;;;;;;;;;;20.30;32.00;;;;;;4975495;28;19972;-47
2023/12/04 00:12:15;;;;;;;;;;;20.30;32.00;;;;;;4975676;28;19926;-48
2023/12/04 00:14:42;;;;;;;;;;;20.30;32.00;;;;;;4975533;28;20466;-52
2023/12/04 00:17:09;;;;;;;;;;;20.20;31.90;;;;;;4975553;28;20387;-52
2023/12/04 00:19:36;;;;;;;;;;;20.20;31.90;;;;;;4975459;28;19926;-54
2023/12/04 00:22:03;;;;;;;;;;;20.30;32.00;;;;;;4975342;28;19926;-53
2023/12/04 00:24:30;;;;;;;;;;;20.20;31.90;;;;;;4975507;28;19926;-53
2023/12/04 00:26:57;;;;;;;;;;;20.20;32.00;;;;;;4975769;28;19926;-56
2023/12/04 00:29:24;;;;;;;;;;;20.20;32.00;;;;;;4975149;28;19933;-52
2023/12/04 00:31:51;;;;;;;;;;;20.20;32.00;;;;;;4975269;28;20443;-52
2023/12/04 00:34:20;;;;;;;;;;;20.20;32.00;;;;;;4975494;28;19934;-51
2023/12/04 00:36:48;;;;;;;;;;;20.20;32.00;;;;;;4985433;28;20324;-49
2023/12/04 00:39:15;;;;;;;;;;;20.20;32.00;;;;;;4994388;28;19989;-49
2023/12/04 00:41:42;;;;;;;;;;;20.20;32.00;;;;;;4981841;28;20018;-53
2023/12/04 00:44:09;;;;;;;;;;;20.20;31.90;;;;;;4974807;28;19980;-52
2023/12/04 00:46:36;;;;;;;;;;;20.20;32.00;;;;;;4975344;28;19973;-51
2023/12/04 00:49:03;;;;;;;;;;;20.20;32.00;;;;;;4975146;28;20392;-48
2023/12/04 00:51:36;;;;;;;;;;;20.20;31.90;;;;;;4975021;28;19926;-47
2023/12/04 00:54:03;;;;;;;;;;;20.20;32.00;;;;;;4975051;28;19932;-49
2023/12/04 00:56:30;;;;;;;;;;;20.20;32.10;;;;;;4974991;28;19981;-47
2023/12/04 00:58:57;;;;;;;;;;;20.10;32.10;;;;;;4975084;28;19926;-47
2023/12/04 01:01:24;;;;;;;;;;;20.20;32.10;;;;;;4974957;28;19926;-47
2023/12/04 01:03:51;;;;;;;;;;;20.20;32.10;;;;;;4974480;28;20274;-50
2023/12/04 01:06:22;;;;;;;;;;;20.20;32.10;;;;;;4974639;28;19937;-50
2023/12/04 01:08:50;;;;;;;;;;;20.20;32.20;;;;;;4974942;28;19969;-47
2023/12/04 01:11:19;;;;;;;;;;;20.20;32.20;;;;;;4975161;28;20013;-45
2023/12/04 01:13:46;;;;;;;;;;;20.20;32.20;;;;;;4974602;28;19933;-45
2023/12/04 01:16:13;;;;;;;;;;;20.10;32.00;;;;;;4975193;28;19934;-47
2023/12/04 01:18:40;;;;;;;;;;;20.10;32.20;;;;;;4974931;28;20004;-47
2023/12/04 01:21:11;;;;;;;;;;;20.10;32.00;;;;;;4974597;28;20398;-48
2023/12/04 01:23:38;;;;;;;;;;;20.10;32.00;;;;;;4974417;28;20334;-46
2023/12/04 01:26:05;;;;;;;;;;;20.10;32.10;;;;;;4974802;28;19954;-47
2023/12/04 01:28:32;;;;;;;;;;;20.10;32.00;;;;;;4974619;28;19926;-48
2023/12/04 01:30:59;;;;;;;;;;;20.10;32.00;;;;;;4974793;28;19926;-47
2023/12/04 01:33:26;;;;;;;;;;;20.10;32.10;;;;;;4974769;28;19933;-47
2023/12/04 01:35:53;;;;;;;;;;;20.10;32.10;;;;;;4974850;28;19930;-46
2023/12/04 01:38:20;;;;;;;;;;;20.10;32.00;;;;;;4974437;28;20392;-48
2023/12/04 01:40:47;;;;;;;;;;;20.10;32.00;;;;;;4974524;28;19989;-48
2023/12/04 01:43:17;;;;;;;;;;;20.10;32.00;;;;;;4973520;28;20201;-48
2023/12/04 01:45:44;;;;;;;;;;;20.10;32.00;;;;;;4974517;28;20468;-46
2023/12/04 01:48:13;;;;;;;;;;;20.10;32.00;;;;;;4974511;28;20315;-50
2023/12/04 01:50:40;;;;;;;;;;;20.10;31.90;;;;;;4974414;28;20025;-52
2023/12/04 01:53:07;;;;;;;;;;;20.10;31.90;;;;;;4974691;28;19926;-53
2023/12/04 01:55:36;;;;;;;;;;;20.10;32.00;;;;;;4974396;28;19926;-53
2023/12/04 01:58:04;;;;;;;;;;;20.10;31.90;;;;;;4974469;28;19926;-53
2023/12/04 02:00:31;;;;;;;;;;;20.10;31.90;;;;;;4974768;28;19976;-53
2023/12/04 02:02:59;;;;;;;;;;;20.10;31.90;;;;;;4974230;28;19933;-52
2023/12/04 02:05:27;;;;;;;;;;;20.10;31.90;;;;;;4974186;28;20418;-52
2023/12/04 02:07:55;;;;;;;;;;;20.10;31.90;;;;;;4974530;28;19976;-46
2023/12/04 02:10:22;;;;;;;;;;;20.10;31.90;;;;;;4974003;28;19981;-53
2023/12/04 02:12:50;;;;;;;;;;;20.10;31.90;;;;;;4974083;28;20340;-51
2023/12/04 02:15:17;;;;;;;;;;;20.10;31.90;;;;;;4974549;28;19926;-48
2023/12/04 02:17:44;;;;;;;;;;;20.10;32.00;;;;;;4974401;28;19981;-47
2023/12/04 02:20:16;;;;;;;;;;;20.10;31.90;;;;;;4974095;28;20008;-50
2023/12/04 02:22:43;;;;;;;;;;;20.10;32.00;;;;;;4973868;28;19977;-46
2023/12/04 02:25:11;;;;;;;;;;;20.10;31.90;;;;;;4974256;28;20374;-52
2023/12/04 02:27:58;;;;;;;;;;;20.10;31.90;;;;;;4977130;28;19933;-49
2023/12/04 02:30:26;;;;;;;;;;;20.10;31.90;;;;;;4977707;28;19926;-47
2023/12/04 02:32:53;;;;;;;;;;;20.00;31.90;;;;;;4977315;28;19988;-47
2023/12/04 02:35:22;;;;;;;;;;;20.00;31.90;;;;;;4977830;28;19934;-52
2023/12/04 02:37:50;;;;;;;;;;;20.00;32.00;;;;;;4977664;28;19938;-47
2023/12/04 02:40:17;;;;;;;;;;;20.00;32.00;;;;;;4977278;28;20028;-47
2023/12/04 02:42:44;;;;;;;;;;;20.00;32.00;;;;;;4977511;28;19981;-48
2023/12/04 02:45:11;;;;;;;;;;;20.00;32.00;;;;;;4977610;28;19926;-50
2023/12/04 02:47:38;;;;;;;;;;;20.00;32.10;;;;;;4977299;28;20360;-48
2023/12/04 02:50:06;;;;;;;;;;;20.00;32.10;;;;;;4977218;28;19926;-46
2023/12/04 02:52:33;;;;;;;;;;;20.00;32.00;;;;;;4977072;28;19933;-46
2023/12/04 02:55:00;;;;;;;;;;;20.00;31.90;;;;;;4977359;28;19926;-46
2023/12/04 02:57:27;;;;;;;;;;;20.00;32.00;;;;;;4991153;28;19930;-47
2023/12/04 02:59:55;;;;;;;;;;;20.00;32.00;;;;;;4975659;28;19926;-47
2023/12/04 03:02:21;;;;;;;;;;;20.00;32.00;;;;;;4977092;28;20304;-46
2023/12/04 03:04:48;;;;;;;;;;;20.00;32.00;;;;;;4977087;28;19926;-48
2023/12/04 03:07:15;;;;;;;;;;;20.00;32.00;;;;;;4976789;28;20407;-46
2023/12/04 03:09:42;;;;;;;;;;;20.00;31.90;;;;;;4976607;28;20000;-49
2023/12/04 03:12:16;;;;;;;;;;;20.00;31.90;;;;;;4977070;28;19977;-47
2023/12/04 03:14:43;;;;;;;;;;;20.00;31.90;;;;;;4976805;28;19930;-48
2023/12/04 03:17:10;;;;;;;;;;;20.00;31.90;;;;;;4976886;28;19926;-47
2023/12/04 03:19:37;;;;;;;;;;;20.00;31.90;;;;;;4976975;28;19996;-46
2023/12/04 03:22:04;;;;;;;;;;;20.00;31.90;;;;;;4985007;28;19926;-53
2023/12/04 03:24:31;;;;;;;;;;;20.00;31.90;;;;;;4996075;28;20322;-54
2023/12/04 03:26:58;;;;;;;;;;;20.00;31.80;;;;;;4996082;28;19965;-52
2023/12/04 03:29:25;;;;;;;;;;;20.00;31.80;;;;;;4988701;28;19926;-53
2023/12/04 03:31:52;;;;;;;;;;;20.00;31.80;;;;;;4976135;28;19981;-50
2023/12/04 03:34:20;;;;;;;;;;;20.00;31.80;;;;;;4974865;28;19988;-53
2023/12/04 03:36:47;;;;;;;;;;;20.00;31.90;;;;;;4976438;28;19927;-53
2023/12/04 03:39:14;;;;;;;;;;;19.90;31.80;;;;;;4976094;28;20487;-48
2023/12/04 03:41:41;;;;;;;;;;;19.90;31.80;;;;;;4976207;28;19930;-53
2023/12/04 03:44:08;;;;;;;;;;;19.90;31.80;;;;;;4976100;28;19926;-53
2023/12/04 03:46:35;;;;;;;;;;;19.90;31.80;;;;;;4976144;28;19934;-49
2023/12/04 03:49:03;;;;;;;;;;;19.90;31.80;;;;;;4975937;28;20332;-49
2023/12/04 03:51:30;;;;;;;;;;;19.90;31.80;;;;;;4976085;28;19930;-51
2023/12/04 03:53:58;;;;;;;;;;;19.90;31.80;;;;;;4973939;28;20268;-48
2023/12/04 03:56:25;;;;;;;;;;;19.90;31.80;;;;;;4975786;28;19926;-48
2023/12/04 03:58:52;;;;;;;;;;;19.90;31.80;;;;;;4975805;28;19965;-53
2023/12/04 04:01:19;;;;;;;;;;;19.90;31.90;;;;;;4975871;28;20379;-53
2023/12/04 04:03:46;;;;;;;;;;;19.90;31.90;;;;;;4974918;28;19933;-47
2023/12/04 04:06:13;;;;;;;;;;;19.90;32.00;;;;;;4975881;28;20268;-47
2023/12/04 04:08:40;;;;;;;;;;;19.90;31.90;;;;;;4975528;28;19974;-48
2023/12/04 04:11:07;;;;;;;;;;;19.90;32.00;;;;;;4975941;28;20332;-47
2023/12/04 04:13:34;;;;;;;;;;;19.90;32.00;;;;;;4975313;28;19973;-51
2023/12/04 04:16:01;;;;;;;;;;;19.90;32.00;;;;;;4975558;28;19941;-48
2023/12/04 04:18:28;;;;;;;;;;;19.90;32.00;;;;;;4975407;28;19926;-47
2023/12/04 04:20:56;;;;;;;;;;;19.90;31.90;;;;;;4975530;28;19933;-47
2023/12/04 04:23:23;;;;;;;;;;;19.90;31.90;;;;;;4974987;28;19980;-50
2023/12/04 04:25:50;;;;;;;;;;;19.90;31.90;;;;;;4973313;28;19989;-48
2023/12/04 04:28:17;;;;;;;;;;;19.90;31.90;;;;;;4964270;28;19930;-49
2023/12/04 04:30:44;;;;;;;;;;;19.90;31.90;;;;;;4956262;28;19977;-50
2023/12/04 04:33:11;;;;;;;;;;;19.90;31.90;;;;;;4966240;28;19933;-48
2023/12/04 04:35:38;;;;;;;;;;;19.90;31.90;;;;;;4955817;29;19933;-48
2023/12/04 04:38:05;;;;;;;;;;;19.90;31.80;;;;;;4955154;29;19978;-47
2023/12/04 04:40:32;;;;;;;;;;;19.90;31.60;;;;;;4955690;29;19926;-50
2023/12/04 04:42:59;;;;;;;;;;;19.90;31.40;;;;;;4955592;28;20396;-49
2023/12/04 04:45:26;;;;;;;;;;;19.90;31.20;;;;;;4973712;28;19926;-47
2023/12/04 04:47:53;;;;;;;;;;;19.90;31.20;;;;;;4973277;28;19926;-51
2023/12/04 04:50:20;;;;;;;;;;;19.90;31.20;;;;;;4973777;28;20024;-47
2023/12/04 04:52:47;;;;;;;;;;;19.90;31.20;;;;;;4975095;28;19981;-47
2023/12/04 04:55:14;;;;;;;;;;;19.90;31.40;;;;;;4974377;28;19942;-53
2023/12/04 04:58:01;;;;;;;;;;;19.80;31.30;;;;;;4970687;28;20644;-53
2023/12/04 05:00:28;;;;;;;;;;;19.80;31.30;;;;;;4972924;28;20021;-52
2023/12/04 05:02:55;;;;;;;;;;;19.80;31.20;;;;;;4973985;28;19933;-50
2023/12/04 05:05:23;;;;;;;;;;;19.80;31.20;;;;;;4974550;28;20346;-53
2023/12/04 05:07:50;;;;;;;;;;;19.80;31.20;;;;;;4974729;28;20438;-53
2023/12/04 05:10:17;;;;;;;;;;;19.80;31.20;;;;;;4974691;28;19949;-49
2023/12/04 05:12:44;;;;;;;;;;;19.80;31.20;;;;;;4974021;28;20020;-51
2023/12/04 05:15:11;;;;;;;;;;;19.80;31.10;;;;;;4974476;28;20311;-53
2023/12/04 05:17:38;;;;;;;;;;;19.80;31.10;;;;;;4974826;28;19926;-49
2023/12/04 05:20:05;;;;;;;;;;;19.80;31.10;;;;;;4974822;28;19926;-51
2023/12/04 05:22:33;;;;;;;;;;;19.80;31.00;;;;;;4974364;28;19926;-53
2023/12/04 05:25:00;;;;;;;;;;;19.80;31.00;;;;;;4974541;28;19980;-48
2023/12/04 05:27:27;;;;;;;;;;;19.90;31.00;;;;;;4974525;28;19972;-51
2023/12/04 05:29:54;;;;;;;;;;;19.90;31.00;;;;;;4974393;28;19930;-50
2023/12/04 05:32:21;;;;;;;;;;;19.90;30.90;;;;;;4974302;28;19973;-47
2023/12/04 05:34:48;;;;;;;;;;;19.90;30.90;;;;;;4968018;28;19970;-50
2023/12/04 05:37:15;;;;;;;;;;;19.90;30.90;;;;;;4971974;28;20013;-50
2023/12/04 05:39:42;;;;;;;;;;;19.90;31.00;;;;;;4982874;28;19957;-47
2023/12/04 05:42:09;;;;;;;;;;;19.90;30.90;;;;;;4984800;28;19949;-47
2023/12/04 05:44:36;;;;;;;;;;;19.90;30.90;;;;;;4991557;28;19926;-49
2023/12/04 05:47:03;;;;;;;;;;;19.90;30.90;;;;;;4974098;28;19941;-50
2023/12/04 05:49:30;;;;;;;;;;;20.00;30.80;;;;;;4953720;28;19926;-47
2023/12/04 05:51:58;;;;;;;;;;;19.90;30.70;;;;;;4965641;28;19977;-48
2023/12/04 05:54:25;;;;;;;;;;;20.00;30.80;;;;;;4969556;28;20387;-51
2023/12/04 05:56:52;;;;;;;;;;;20.00;30.70;;;;;;4972693;28;19953;-49
2023/12/04 05:59:19;;;;;;;;;;;20.00;30.70;;;;;;4967647;28;19927;-53
2023/12/04 06:01:46;;;;;;;;;;;20.00;30.60;;;;;;4973054;28;19938;-47
2023/12/04 06:04:13;;;;;;;;;;;20.00;30.50;;;;;;4977436;28;20380;-47
2023/12/04 06:06:40;;;;;;;;;;;20.00;30.50;;;;;;4976930;28;20024;-52
2023/12/04 06:09:07;;;;;;;;;;;20.00;30.40;;;;;;4977285;28;19926;-51
2023/12/04 06:11:34;;;;;;;;;;;20.00;30.40;;;;;;4977804;28;20011;-52
2023/12/04 06:14:01;;;;;;;;;;;20.00;30.40;;;;;;4977074;28;19973;-54
2023/12/04 06:16:29;;;;;;;;;;;20.10;30.50;;;;;;4976927;28;19981;-55
2023/12/04 06:18:57;;;;;;;;;;;20.10;30.60;;;;;;4976452;28;19928;-52
2023/12/04 06:21:24;;;;;;;;;;;20.10;30.90;;;;;;4975657;28;19997;-53
2023/12/04 06:23:52;;;;;;;;;;;20.10;31.00;;;;;;4973924;28;20005;-52
2023/12/04 06:26:19;;;;;;;;;;;20.10;31.30;;;;;;4977258;28;19976;-54
2023/12/04 06:28:46;;;;;;;;;;;20.10;31.30;;;;;;4978101;28;19997;-53
2023/12/04 06:31:14;;;;;;;;;;;20.20;31.70;;;;;;4974557;28;20461;-53
2023/12/04 06:33:42;;;;;;;;;;;20.30;31.80;;;;;;4972111;28;19942;-55
2023/12/04 06:36:09;;;;;;;;;;;20.30;31.70;;;;;;4964343;28;19944;-53
2023/12/04 06:38:39;;;;;;;;;;;20.40;31.80;;;;;;4956930;28;19926;-54
2023/12/04 06:41:06;;;;;;;;;;;20.40;31.90;;;;;;4976004;28;19930;-55
2023/12/04 06:46:59;;;;;;;;;;;20.60;31.90;;;;;;4972146;28;19929;-50
2023/12/04 06:49:29;;;;;;;;;;;20.70;31.70;;;;;;4960558;28;19927;-49
2023/12/04 06:51:56;;;;;;;;;;;20.80;31.50;;;;;;4960813;29;19933;-49
2023/12/04 06:58:09;;;;;;;;;;;21.00;31.30;;;;;;4979835;28;19973;-61
2023/12/04 07:00:48;;;;;;;;;;;21.10;31.00;;;;;;4979858;28;19930;-54
2023/12/04 07:03:16;;;;;;;;;;;21.20;31.00;;;;;;4978857;28;19930;-55
2023/12/04 07:05:44;;;;;;;;;;;21.30;31.00;;;;;;4978789;28;19926;-55
2023/12/04 07:08:11;;;;;;;;;;;21.40;30.90;;;;;;4978862;28;19933;-52
2023/12/04 07:10:39;;;;;;;;;;;21.40;30.80;;;;;;4979067;28;20386;-50
2023/12/04 07:13:12;;;;;;;;;;;21.50;30.80;;;;;;4979729;28;19988;-56
2023/12/04 07:15:39;;;;;;;;;;;21.60;30.70;;;;;;4980741;28;20431;-56
2023/12/04 07:18:06;;;;;;;;;;;21.70;30.60;;;;;;4979487;28;19942;-60
2023/12/04 07:20:34;;;;;;;;;;;21.70;30.50;;;;;;4979983;28;19925;-49
2023/12/04 07:23:01;;;;;;;;;;;21.80;30.40;;;;;;4979730;28;19930;-50
2023/12/04 07:25:28;;;;;;;;;;;21.90;30.30;;;;;;4980512;28;19926;-57
2023/12/04 07:27:57;;;;;;;;;;;21.90;30.30;;;;;;4963320;28;19933;-50
2023/12/04 07:30:25;;;;;;;;;;;22.00;30.50;;;;;;4979224;28;20391;-60
2023/12/04 07:32:53;;;;;;;;;;;22.10;30.50;;;;;;4962528;28;20387;-56
2023/12/04 07:35:21;;;;;;;;;;;22.10;30.30;;;;;;4979509;28;19926;-52
2023/12/04 07:37:48;;;;;;;;;;;22.20;30.10;;;;;;4979205;28;19926;-55
2023/12/04 07:40:15;;;;;;;;;;;22.30;30.00;;;;;;4979435;28;19933;-51
2023/12/04 07:42:42;;;;;;;;;;;22.30;29.80;;;;;;4978911;28;19945;-51
2023/12/04 07:45:11;;;;;;;;;;;22.40;29.80;;;;;;4978911;28;19933;-55
2023/12/04 07:47:38;;;;;;;;;;;22.40;29.80;;;;;;4979017;28;19976;-56
2023/12/04 07:50:06;;;;;;;;;;;22.50;30.30;;;;;;4978849;28;20017;-53
2023/12/04 07:52:33;;;;;;;;;;;22.50;29.90;;;;;;4979015;28;20371;-52
2023/12/04 07:55:00;;;;;;;;;;;22.60;29.90;;;;;;4979186;28;20423;-54
2023/12/04 07:57:27;;;;;;;;;;;22.60;30.00;;;;;;4979057;28;19969;-55
2023/12/04 07:59:54;;;;;;;;;;;22.70;29.90;;;;;;4962015;28;19950;-54
2023/12/04 08:02:21;;;;;;;;;;;22.70;29.90;;;;;;4975892;28;20372;-57
2023/12/04 08:16:40;;;;;;;;;;;22.90;29.70;;;;;;4992800;28;19926;-91
2023/12/04 08:19:08;;;;;;;;;;;23.00;29.70;;;;;;4957105;28;19934;-90
2023/12/04 08:21:49;;;;;;;;;;;23.00;29.60;;;;;;4981002;28;20032;-90
2023/12/04 08:24:19;;;;;;;;;;;23.10;29.50;;;;;;4966538;28;20016;-89
2023/12/04 08:26:46;;;;;;;;;;;23.10;29.50;;;;;;4959931;28;20060;-88
2023/12/04 08:29:14;;;;;;;;;;;23.10;29.50;;;;;;4981229;28;19937;-87
2023/12/04 08:31:42;;;;;;;;;;;23.20;29.40;;;;;;5000306;28;19925;-89
2023/12/04 08:34:12;;;;;;;;;;;23.20;29.40;;;;;;4973585;28;19927;-92
2023/12/04 08:36:42;;;;;;;;;;;23.30;29.50;;;;;;4982726;28;19926;-91
2023/12/04 08:39:13;;;;;;;;;;;23.30;29.40;;;;;;4985718;28;19953;-91
2023/12/04 08:41:40;;;;;;;;;;;23.30;29.30;;;;;;4992916;28;20045;-88
2023/12/04 08:44:20;;;;;;;;;;;23.40;29.20;;;;;;4982939;28;19930;-92
2023/12/04 08:46:52;;;;;;;;;;;23.40;29.10;;;;;;4961972;28;20361;-88
2023/12/04 08:49:34;;;;;;;;;;;23.40;29.00;;;;;;4970095;28;20012;-88
2023/12/04 08:52:12;;;;;;;;;;;23.40;29.00;;;;;;4957155;28;19934;-88
2023/12/04 08:54:41;;;;;;;;;;;23.50;29.10;;;;;;4957405;28;19934;-84
2023/12/04 08:57:09;;;;;;;;;;;23.50;28.90;;;;;;4961619;28;20057;-87
2023/12/04 08:59:36;;;;;;;;;;;23.50;28.70;;;;;;4961904;28;19933;-89
2023/12/04 09:02:04;;;;;;;;;;;23.50;28.80;;;;;;4972562;28;19965;-88
2023/12/04 09:04:32;;;;;;;;;;;23.60;29.00;;;;;;4976045;28;19934;-87
2023/12/04 09:07:02;;;;;;;;;;;23.60;28.80;;;;;;4980587;28;19926;-87
2023/12/04 09:10:03;;;;;;;;;;;23.60;28.70;;;;;;4979249;28;19949;-89
2023/12/04 09:13:14;;;;;;;;;;;23.60;28.70;;;;;;5000288;28;20395;-93
2023/12/04 09:19:11;;;;;;;;;;;23.70;28.80;;;;;;4976665;28;19984;-91
2023/12/04 09:24:30;;;;;;;;;;;23.70;28.70;;;;;;4990170;28;19929;-90
2023/12/04 09:27:07;;;;;;;;;;;23.80;28.80;;;;;;4968859;28;19937;-91
2023/12/04 09:29:37;;;;;;;;;;;23.80;28.70;;;;;;4951843;28;19969;-92
2023/12/04 09:32:07;;;;;;;;;;;23.80;28.70;;;;;;4949283;28;19934;-90
2023/12/04 09:34:37;;;;;;;;;;;23.90;28.80;;;;;;4934789;28;19941;-88
2023/12/04 09:37:05;;;;;;;;;;;23.80;28.70;;;;;;4953992;28;19930;-87
2023/12/04 09:39:37;;;;;;;;;;;23.90;28.80;;;;;;4975417;28;19933;-90
2023/12/04 09:42:10;;;;;;;;;;;23.90;28.80;;;;;;4952808;28;19933;-90
2023/12/04 09:44:41;;;;;;;;;;;23.90;28.80;;;;;;4958728;28;19941;-89
2023/12/04 09:47:18;;;;;;;;;;;23.90;28.70;;;;;;4967807;28;19929;-91
2023/12/04 09:49:46;;;;;;;;;;;24.00;28.80;;;;;;4965723;28;20394;-89
2023/12/04 09:52:14;;;;;;;;;;;24.00;28.70;;;;;;4939777;28;19934;-90
2023/12/04 09:54:41;;;;;;;;;;;24.10;28.50;;;;;;4972502;28;19934;-91
2023/12/04 09:57:12;;;;;;;;;;;24.10;28.60;;;;;;4962761;28;20391;-90
2023/12/04 09:59:40;;;;;;;;;;;24.00;28.60;;;;;;4980293;28;19933;-90
2023/12/04 10:02:07;;;;;;;;;;;24.10;28.60;;;;;;4983220;28;19929;-88
2023/12/04 10:04:36;;;;;;;;;;;24.10;28.60;;;;;;4981376;28;20016;-91
2023/12/04 10:07:04;;;;;;;;;;;24.10;28.50;;;;;;4974976;28;20060;-89
2023/12/04 10:12:21;;;;;;;;;;;24.10;28.60;;;;;;4996658;28;19932;-90
2023/12/04 10:15:06;;;;;;;;;;;24.10;28.60;;;;;;4985288;28;20372;-90
2023/12/04 10:17:37;;;;;;;;;;;24.20;28.60;;;;;;4978993;28;19933;-92
2023/12/04 10:20:12;;;;;;;;;;;24.20;28.50;;;;;;5014268;28;19913;-91
2023/12/04 10:23:02;;;;;;;;;;;24.30;28.50;;;;;;4991214;28;19918;-88
2023/12/04 10:26:12;;;;;;;;;;;;;;;;;;;;;
2023/12/04 10:29:05;;;;;;;;;;;24.30;28.60;;;;;;4950346;28;19955;-91
2023/12/04 10:31:41;;;;;;;;;;;24.30;28.90;;;;;;4973574;28;19914;-90
2023/12/04 10:34:21;;;;;;;;;;;24.40;28.80;;;;;;4971497;28;19933;-92
2023/12/04 10:36:49;;;;;;;;;;;24.40;28.60;;;;;;4988310;28;19925;-91
2023/12/04 10:39:47;;;;;;;;;;;24.40;28.20;;;;;;4992081;23;19960;-53
2023/12/04 10:42:25;;;;;;;;;;;24.40;28.10;;;;;;4993654;28;19956;-56
2023/12/04 10:44:55;;;;;;;;;;;24.50;28.00;;;;;;5017142;28;19937;-57
2023/12/04 10:47:23;;;;;;;;;;;24.60;28.00;;;;;;5008294;28;19953;-55
2023/12/04 10:49:51;;;;;;;;;;;24.60;28.00;;;;;;5008985;28;20274;-55
2023/12/04 10:52:22;;;;;;;;;;;24.60;28.10;;;;;;4989358;28;20412;-55
2023/12/04 10:54:49;;;;;;;;;;;24.70;28.10;;;;;;5005165;28;20283;-54
2023/12/04 10:57:21;;;;;;;;;;;24.60;28.00;;;;;;5010742;28;19995;-56
2023/12/04 10:59:50;;;;;;;;;;;24.70;27.90;;;;;;5008454;28;19937;-57
2023/12/04 11:02:21;;;;;;;;;;;24.70;28.30;;;;;;5007159;28;20315;-52
2023/12/04 11:04:51;;;;;;;;;;;24.70;27.80;;;;;;5010882;28;19936;-54
2023/12/04 11:07:19;;;;;;;;;;;24.80;27.90;;;;;;5007621;28;19938;-53
2023/12/04 11:09:48;;;;;;;;;;;24.70;28.00;;;;;;5004595;28;20331;-55
2023/12/04 11:12:18;;;;;;;;;;;24.70;28.00;;;;;;5005410;28;20013;-48
2023/12/04 11:14:49;;;;;;;;;;;24.70;27.90;;;;;;5006456;28;20008;-54
2023/12/04 11:17:17;;;;;;;;;;;24.70;27.90;;;;;;5008140;28;20260;-56
2023/12/04 11:19:55;;;;;;;;;;;24.80;28.00;;;;;;5006957;28;20474;-54
2023/12/04 11:22:24;;;;;;;;;;;24.70;28.10;;;;;;5007689;28;19937;-53
2023/12/04 11:24:52;;;;;;;;;;;24.70;28.10;;;;;;5009373;28;19964;-55
2023/12/04 11:27:20;;;;;;;;;;;24.70;28.20;;;;;;5006474;28;20445;-54
2023/12/04 11:29:48;;;;;;;;;;;24.60;28.20;;;;;;5007943;28;19937;-49
2023/12/04 11:32:19;;;;;;;;;;;24.60;28.20;;;;;;5007745;28;19926;-52
2023/12/04 11:34:51;;;;;;;;;;;24.60;28.20;;;;;;5007657;28;19933;-56
2023/12/04 11:37:19;;;;;;;;;;;24.60;28.30;;;;;;5003956;28;19968;-55
2023/12/04 11:39:48;;;;;;;;;;;24.60;28.40;;;;;;5005854;28;20483;-55
2023/12/04 11:42:18;;;;;;;;;;;24.60;28.20;;;;;;5007919;28;20362;-55
2023/12/04 11:44:47;;;;;;;;;;;24.70;28.30;;;;;;5006239;28;19938;-54
2023/12/04 11:47:15;;;;;;;;;;;24.70;28.10;;;;;;5009441;28;19933;-53
2023/12/04 11:49:42;;;;;;;;;;;24.70;28.10;;;;;;5006936;28;20283;-55
2023/12/04 11:52:09;;;;;;;;;;;24.70;28.00;;;;;;5010326;28;19929;-55
2023/12/04 11:55:00;;;;;;;;;;;24.70;27.90;;;;;;5005387;28;19964;-55
2023/12/04 11:57:31;;;;;;;;;;;24.70;27.60;;;;;;5006004;28;19925;-55
2023/12/04 12:00:23;;;;;;;;;;;24.70;27.20;;;;;;5009841;28;19995;-56
2023/12/04 12:03:06;;;;;;;;;;;24.70;27.20;;;;;;5003980;28;19957;-55
2023/12/04 12:05:48;;;;;;;;;;;24.70;27.20;;;;;;5004590;28;19929;-54
2023/12/04 12:08:17;;;;;;;;;;;24.70;26.80;;;;;;5004711;28;19929;-58
2023/12/04 12:10:45;;;;;;;;;;;24.70;26.40;;;;;;5004596;28;20354;-54
2023/12/04 12:13:12;;;;;;;;;;;24.70;26.40;;;;;;4986897;28;19926;-55
2023/12/04 12:15:39;;;;;;;;;;;24.70;26.60;;;;;;5005934;28;19975;-55
2023/12/04 12:18:06;;;;;;;;;;;24.70;26.70;;;;;;5006676;28;19925;-55
2023/12/04 12:20:36;;;;;;;;;;;24.80;26.80;;;;;;5005465;28;20367;-57
2023/12/04 12:23:03;;;;;;;;;;;24.70;26.80;;;;;;5004332;28;19929;-56
2023/12/04 12:25:30;;;;;;;;;;;24.80;26.90;;;;;;5004220;28;19925;-56
2023/12/04 12:27:57;;;;;;;;;;;24.80;26.90;;;;;;5002664;28;19933;-58
2023/12/04 12:30:25;;;;;;;;;;;24.80;26.90;;;;;;5004483;28;19964;-55
2023/12/04 12:32:52;;;;;;;;;;;24.80;26.90;;;;;;5001648;28;19934;-56
2023/12/04 12:35:20;;;;;;;;;;;24.80;26.90;;;;;;5008549;28;20480;-53
2023/12/04 12:37:47;;;;;;;;;;;24.90;26.90;;;;;;5010218;28;19995;-54
2023/12/04 12:40:14;;;;;;;;;;;24.90;26.90;;;;;;5003074;28;19987;-54
2023/12/04 12:42:42;;;;;;;;;;;24.90;26.90;;;;;;4992022;28;19933;-57
2023/12/04 12:45:11;;;;;;;;;;;24.90;27.00;;;;;;5007682;28;19971;-57
2023/12/04 12:47:41;;;;;;;;;;;24.90;26.90;;;;;;5007267;28;19933;-53
2023/12/04 12:50:10;;;;;;;;;;;24.90;27.40;;;;;;5002982;28;19933;-53
2023/12/04 12:52:37;;;;;;;;;;;24.90;27.00;;;;;;5001981;28;19946;-56
2023/12/04 12:55:04;;;;;;;;;;;24.90;27.00;;;;;;4998927;28;19941;-57
2023/12/04 12:57:32;;;;;;;;;;;25.00;27.10;;;;;;4999024;28;20394;-53
2023/12/04 12:59:59;;;;;;;;;;;25.00;27.60;;;;;;4999868;28;19960;-58
2023/12/04 13:02:26;;;;;;;;;;;25.00;27.10;;;;;;4996621;28;19925;-55
2023/12/04 13:04:55;;;;;;;;;;;24.90;27.00;;;;;;4997787;28;19930;-58
2023/12/04 13:07:23;;;;;;;;;;;24.90;27.20;;;;;;4997443;28;19968;-56
2023/12/04 13:09:50;;;;;;;;;;;25.00;27.70;;;;;;4998309;28;19929;-56
2023/12/04 13:12:17;;;;;;;;;;;25.00;27.60;;;;;;4997095;28;19961;-58
2023/12/04 13:14:44;;;;;;;;;;;25.00;27.50;;;;;;5000966;28;20024;-57
2023/12/04 13:17:11;;;;;;;;;;;25.00;27.50;;;;;;5003797;28;20151;-55
2023/12/04 13:19:38;;;;;;;;;;;25.00;27.50;;;;;;4995203;28;20398;-55
2023/12/04 13:22:06;;;;;;;;;;;25.00;27.40;;;;;;5003780;28;19938;-55
2023/12/04 13:24:34;;;;;;;;;;;25.00;27.50;;;;;;4987585;28;20375;-54
2023/12/04 13:27:02;;;;;;;;;;;25.00;27.50;;;;;;5000450;28;19977;-57
2023/12/04 13:29:29;;;;;;;;;;;25.10;27.40;;;;;;5004171;28;20039;-56
2023/12/04 13:31:57;;;;;;;;;;;25.10;27.40;;;;;;5001650;28;20024;-57
2023/12/04 13:34:24;;;;;;;;;;;25.10;27.40;;;;;;4993411;28;19939;-54
2023/12/04 13:36:51;;;;;;;;;;;25.00;27.50;;;;;;4996856;28;20383;-55
2023/12/04 13:39:26;;;;;;;;;;;25.10;27.70;;;;;;4998196;28;20545;-57
2023/12/04 13:44:41;;;;;;;;;;;25.00;27.80;;;;;;4994673;28;19934;-54
2023/12/04 13:47:08;;;;;;;;;;;25.10;28.00;;;;;;5004892;28;19932;-56
2023/12/04 13:49:35;;;;;;;;;;;25.10;28.10;;;;;;5002518;28;19977;-56
2023/12/04 13:52:07;;;;;;;;;;;25.10;28.00;;;;;;5002486;28;19937;-55
2023/12/04 13:54:47;;;;;;;;;;;25.10;28.10;;;;;;5001438;28;19929;-56
2023/12/04 13:57:33;;;;;;;;;;;25.10;28.00;;;;;;5000337;28;20000;-54
2023/12/04 14:00:00;;;;;;;;;;;25.10;28.00;;;;;;5002221;28;19934;-52
2023/12/04 14:02:27;;;;;;;;;;;25.10;28.00;;;;;;5000277;28;19925;-55
2023/12/04 14:04:55;;;;;;;;;;;25.10;27.90;;;;;;5004035;28;19937;-51
2023/12/04 14:07:25;;;;;;;;;;;25.10;27.90;;;;;;5001996;28;19926;-51
2023/12/04 14:09:53;;;;;;;;;;;25.20;27.90;;;;;;5003672;28;19934;-51
2023/12/04 14:12:21;;;;;;;;;;;25.20;28.20;;;;;;5002785;28;19937;-52
2023/12/04 14:14:48;;;;;;;;;;;25.20;27.70;;;;;;5003638;28;19929;-53
2023/12/04 14:17:15;;;;;;;;;;;25.10;27.70;;;;;;5001033;28;20385;-52
2023/12/04 14:19:42;;;;;;;;;;;25.10;27.90;;;;;;4999699;28;19956;-57
2023/12/04 14:22:10;;;;;;;;;;;25.00;27.70;;;;;;4998029;28;20016;-52
2023/12/04 14:24:37;;;;;;;;;;;24.90;27.70;;;;;;5005561;28;19932;-56
2023/12/04 14:27:05;;;;;;;;;;;24.90;27.80;;;;;;5008603;28;19941;-56
2023/12/04 14:29:33;;;;;;;;;;;24.80;28.00;;;;;;5006021;28;19939;-56
2023/12/04 14:32:00;;;;;;;;;;;24.80;28.10;;;;;;4992201;28;20020;-57
2023/12/04 14:34:28;;;;;;;;;;;24.70;28.30;;;;;;5009367;28;19934;-58
2023/12/04 14:36:55;;;;;;;;;;;24.70;28.50;;;;;;5004050;28;19933;-58
2023/12/04 14:39:23;;;;;;;;;;;24.70;28.50;;;;;;5006504;28;19933;-57
2023/12/04 14:41:51;;;;;;;;;;;24.60;28.60;;;;;;4991936;28;19956;-56
2023/12/04 14:44:18;;;;;;;;;;;24.50;28.40;;;;;;5011305;28;20441;-55
2023/12/04 14:46:45;;;;;;;;;;;24.50;28.40;;;;;;5006468;28;20016;-52
2023/12/04 14:49:12;;;;;;;;;;;24.40;28.40;;;;;;5006559;28;19929;-52
2023/12/04 14:51:40;;;;;;;;;;;24.40;28.40;;;;;;5005811;28;20024;-57
2023/12/04 14:54:15;;;;;;;;;;;24.30;28.60;;;;;;5007564;28;19926;-54
2023/12/04 15:05:40;;;;;;;;;;;24.20;28.90;;;;;;5008778;28;19929;-54
2023/12/04 15:08:25;;;;;;;;;;;24.10;29.10;;;;;;5002863;28;19941;-53